Time,TemperatureF,DewpointF,PressureIn,WindDirection,WindDirectionDegrees,WindSpeedMPH,WindSpeedGustMPH,Humidity,HourlyPrecipIn,Conditions,Clouds,dailyrainin,SoftwareType,DateUTC
2013-02-26 00:01:00,29.0,24.0,29.85,SSE,165,2.0,6.0,82,0.00,,,0.00,,2013-02-26 06:01:00,
2013-02-26 00:11:00,29.0,24.0,29.85,SSE,165,2.0,6.0,82,0.00,,,0.00,,2013-02-26 06:11:00,
2013-02-26 00:21:00,28.0,24.0,29.85,SSE,159,2.0,4.0,83,0.00,,,0.00,,2013-02-26 06:21:00,
2013-02-26 00:32:00,28.0,24.0,29.85,SSE,159,1.0,4.0,83,0.00,,,0.00,,2013-02-26 06:32:00,
2013-02-26 00:41:00,28.0,24.0,29.85,SSE,159,1.0,4.0,83,0.00,,,0.00,,2013-02-26 06:41:00,
2013-02-26 00:52:00,28.0,24.0,29.85,South,171,1.0,7.0,83,0.00,,,0.00,,2013-02-26 06:52:00,
2013-02-26 01:01:00,27.0,23.0,29.85,South,171,1.0,4.0,83,0.00,,,0.00,,2013-02-26 07:01:00,
2013-02-26 01:11:00,27.0,23.0,29.85,South,171,1.0,4.0,83,0.00,,,0.00,,2013-02-26 07:11:00,
2013-02-26 01:22:00,27.0,23.0,29.85,South,169,0.0,3.0,84,0.00,,,0.00,,2013-02-26 07:22:00,
2013-02-26 01:31:00,27.0,23.0,29.85,South,171,2.0,5.0,84,0.00,,,0.00,,2013-02-26 07:31:00,
2013-02-26 01:41:00,27.0,23.0,29.85,South,171,2.0,5.0,84,0.00,,,0.00,,2013-02-26 07:41:00,
2013-02-26 01:52:00,27.0,22.0,29.84,South,175,1.0,5.0,82,0.00,,,0.00,,2013-02-26 07:52:00,
2013-02-26 02:02:00,28.0,23.0,29.85,South,185,4.0,8.0,80,0.00,,,0.00,,2013-02-26 08:02:00,
2013-02-26 02:11:00,28.0,23.0,29.85,South,185,4.0,8.0,80,0.00,,,0.00,,2013-02-26 08:11:00,
2013-02-26 02:21:00,28.0,22.0,29.85,South,191,3.0,5.0,79,0.00,,,0.00,,2013-02-26 08:21:00,
2013-02-26 02:31:00,28.0,22.0,29.85,SSW,194,4.0,7.0,79,0.00,,,0.00,,2013-02-26 08:31:00,
2013-02-26 02:42:00,28.0,22.0,29.85,SSW,194,4.0,7.0,79,0.00,,,0.00,,2013-02-26 08:42:00,
2013-02-26 02:52:00,28.0,22.0,29.85,South,190,0.0,5.0,78,0.00,,,0.00,,2013-02-26 08:52:00,
2013-02-26 03:01:00,27.0,21.0,29.85,South,190,0.0,1.0,78,0.00,,,0.00,,2013-02-26 09:01:00,
2013-02-26 03:11:00,27.0,21.0,29.85,South,190,0.0,1.0,78,0.00,,,0.00,,2013-02-26 09:11:00,
2013-02-26 03:21:00,25.0,20.0,29.85,South,190,0.0,0.0,80,0.00,,,0.00,,2013-02-26 09:21:00,
2013-02-26 03:31:00,24.0,20.0,29.84,South,190,0.0,0.0,83,0.00,,,0.00,,2013-02-26 09:31:00,
2013-02-26 03:43:00,24.0,20.0,29.84,South,190,0.0,0.0,83,0.00,,,0.00,,2013-02-26 09:43:00,
2013-02-26 03:52:00,23.0,19.0,29.85,South,190,0.0,1.0,85,0.00,,,0.00,,2013-02-26 09:52:00,
2013-02-26 04:01:00,22.0,18.0,29.84,South,190,0.0,1.0,85,0.00,,,0.00,,2013-02-26 10:01:00,
2013-02-26 04:11:00,22.0,18.0,29.84,South,190,0.0,1.0,85,0.00,,,0.00,,2013-02-26 10:11:00,
2013-02-26 04:21:00,22.0,18.0,29.84,South,190,0.0,1.0,86,0.00,,,0.00,,2013-02-26 10:21:00,
2013-02-26 04:31:00,21.0,17.0,29.84,South,190,0.0,3.0,86,0.00,,,0.00,,2013-02-26 10:31:00,
2013-02-26 04:41:00,21.0,17.0,29.84,South,190,0.0,3.0,86,0.00,,,0.00,,2013-02-26 10:41:00,
2013-02-26 04:52:00,21.0,18.0,29.85,South,190,1.0,2.0,87,0.00,,,0.00,,2013-02-26 10:52:00,
2013-02-26 05:01:00,20.0,17.0,29.85,South,190,1.0,3.0,88,0.00,,,0.00,,2013-02-26 11:01:00,
2013-02-26 05:12:00,20.0,17.0,29.85,South,190,1.0,3.0,88,0.00,,,0.00,,2013-02-26 11:12:00,
2013-02-26 05:21:00,21.0,18.0,29.86,SSE,163,1.0,4.0,89,0.00,,,0.00,,2013-02-26 11:21:00,
2013-02-26 05:32:00,21.0,18.0,29.86,SSE,163,0.0,2.0,88,0.00,,,0.00,,2013-02-26 11:32:00,
2013-02-26 05:42:00,21.0,18.0,29.86,SSE,163,0.0,2.0,88,0.00,,,0.00,,2013-02-26 11:42:00,
2013-02-26 05:52:00,20.0,17.0,29.86,SSE,163,0.0,1.0,88,0.00,,,0.00,,2013-02-26 11:52:00,
2013-02-26 06:01:00,20.0,17.0,29.86,SSE,163,0.0,2.0,88,0.00,,,0.00,,2013-02-26 12:01:00,
2013-02-26 06:11:00,20.0,17.0,29.86,SSE,163,0.0,2.0,88,0.00,,,0.00,,2013-02-26 12:11:00,
2013-02-26 06:22:00,20.0,17.0,29.86,SSE,163,0.0,1.0,88,0.00,,,0.00,,2013-02-26 12:22:00,
2013-02-26 06:32:00,19.0,16.0,29.87,SSE,163,1.0,2.0,89,0.00,,,0.00,,2013-02-26 12:32:00,
2013-02-26 06:42:00,19.0,16.0,29.87,SSE,163,1.0,2.0,89,0.00,,,0.00,,2013-02-26 12:42:00,
2013-02-26 06:53:00,19.0,17.0,29.87,SSE,163,0.0,1.0,90,0.00,,,0.00,,2013-02-26 12:53:00,
2013-02-26 07:01:00,19.0,17.0,29.88,SSE,163,0.0,2.0,90,0.00,,,0.00,,2013-02-26 13:01:00,
2013-02-26 07:11:00,19.0,17.0,29.88,SSE,163,0.0,2.0,90,0.00,,,0.00,,2013-02-26 13:11:00,
2013-02-26 07:21:00,19.0,17.0,29.87,SSE,163,0.0,2.0,90,0.00,,,0.00,,2013-02-26 13:21:00,
2013-02-26 07:32:00,19.0,17.0,29.88,SSE,163,0.0,1.0,90,0.00,,,0.00,,2013-02-26 13:32:00,
2013-02-26 07:42:00,19.0,17.0,29.88,SSE,163,0.0,1.0,90,0.00,,,0.00,,2013-02-26 13:42:00,
2013-02-26 07:52:00,19.0,17.0,29.88,SSE,163,0.0,1.0,90,0.00,,,0.00,,2013-02-26 13:52:00,
2013-02-26 08:01:00,18.0,16.0,29.88,SSE,163,0.0,0.0,90,0.00,,,0.00,,2013-02-26 14:01:00,
2013-02-26 08:11:00,18.0,16.0,29.88,SSE,163,0.0,0.0,90,0.00,,,0.00,,2013-02-26 14:11:00,
2013-02-26 08:21:00,18.0,16.0,29.88,SSE,163,0.0,1.0,91,0.00,,,0.00,,2013-02-26 14:21:00,
2013-02-26 08:32:00,19.0,17.0,29.88,SSE,163,0.0,1.0,92,0.00,,,0.00,,2013-02-26 14:32:00,
2013-02-26 08:42:00,19.0,17.0,29.88,SSE,163,0.0,1.0,92,0.00,,,0.00,,2013-02-26 14:42:00,
2013-02-26 08:52:00,20.0,18.0,29.89,SSE,163,0.0,2.0,91,0.00,,,0.00,,2013-02-26 14:52:00,
2013-02-26 09:02:00,22.0,20.0,29.88,SSE,163,0.0,3.0,90,0.00,,,0.00,,2013-02-26 15:02:00,
2013-02-26 09:11:00,22.0,20.0,29.88,SSE,163,0.0,3.0,90,0.00,,,0.00,,2013-02-26 15:11:00,
2013-02-26 09:21:00,23.0,20.0,29.89,SSE,163,0.0,2.0,87,0.00,,,0.00,,2013-02-26 15:21:00,
2013-02-26 09:32:00,24.0,20.0,29.89,SSE,163,1.0,5.0,84,0.00,,,0.00,,2013-02-26 15:32:00,
2013-02-26 09:42:00,24.0,20.0,29.89,SSE,163,1.0,5.0,84,0.00,,,0.00,,2013-02-26 15:42:00,
2013-02-26 09:52:00,25.0,21.0,29.90,SSE,159,1.0,3.0,84,0.00,,,0.00,,2013-02-26 15:52:00,
2013-02-26 10:01:00,26.0,21.0,29.89,SSE,159,1.0,2.0,82,0.00,,,0.00,,2013-02-26 16:01:00,
2013-02-26 10:11:00,26.0,21.0,29.89,SSE,159,1.0,2.0,82,0.00,,,0.00,,2013-02-26 16:11:00,
2013-02-26 10:22:00,28.0,22.0,29.89,SSE,159,0.0,4.0,78,0.00,,,0.00,,2013-02-26 16:22:00,
2013-02-26 10:32:00,28.0,22.0,29.89,SSE,150,1.0,3.0,77,0.00,,,0.00,,2013-02-26 16:32:00,
2013-02-26 10:42:00,28.0,22.0,29.89,SSE,150,1.0,3.0,77,0.00,,,0.00,,2013-02-26 16:42:00,
2013-02-26 10:52:00,30.0,23.0,29.89,SSE,150,0.0,2.0,74,0.00,,,0.00,,2013-02-26 16:52:00,
2013-02-26 11:01:00,31.0,23.0,29.89,SSE,155,2.0,5.0,72,0.00,,,0.00,,2013-02-26 17:01:00,
2013-02-26 11:11:00,31.0,23.0,29.89,SSE,155,2.0,5.0,72,0.00,,,0.00,,2013-02-26 17:11:00,
2013-02-26 11:21:00,32.0,24.0,29.90,SSE,164,3.0,5.0,71,0.00,,,0.00,,2013-02-26 17:21:00,
2013-02-26 11:32:00,34.0,25.0,29.90,SE,141,2.0,6.0,70,0.00,,,0.00,,2013-02-26 17:32:00,
2013-02-26 11:41:00,34.0,25.0,29.90,SE,141,2.0,6.0,70,0.00,,,0.00,,2013-02-26 17:41:00,
2013-02-26 11:52:00,34.0,25.0,29.91,SSE,150,2.0,5.0,70,0.00,,,0.00,,2013-02-26 17:52:00,
2013-02-26 12:01:00,36.0,26.0,29.91,SSE,148,2.0,5.0,66,0.00,,,0.00,,2013-02-26 18:01:00,
2013-02-26 12:12:00,36.0,26.0,29.91,SSE,148,2.0,5.0,66,0.00,,,0.00,,2013-02-26 18:12:00,
2013-02-26 12:21:00,37.0,24.0,29.91,South,185,5.0,8.0,58,0.00,,,0.00,,2013-02-26 18:21:00,
2013-02-26 12:32:00,37.0,23.0,29.91,South,178,3.0,6.0,56,0.00,,,0.00,,2013-02-26 18:32:00,
2013-02-26 12:42:00,37.0,23.0,29.91,South,178,3.0,6.0,56,0.00,,,0.00,,2013-02-26 18:42:00,
2013-02-26 12:52:00,38.0,23.0,29.91,South,183,4.0,7.0,55,0.00,,,0.00,,2013-02-26 18:52:00,
2013-02-26 13:01:00,40.0,25.0,29.91,SSE,163,2.0,6.0,54,0.00,,,0.00,,2013-02-26 19:01:00,
2013-02-26 13:11:00,40.0,25.0,29.91,SSE,163,2.0,6.0,54,0.00,,,0.00,,2013-02-26 19:11:00,
2013-02-26 13:22:00,41.0,26.0,29.91,SSE,162,2.0,8.0,55,0.00,,,0.00,,2013-02-26 19:22:00,
2013-02-26 13:32:00,42.0,26.0,29.92,SE,146,3.0,6.0,53,0.00,,,0.00,,2013-02-26 19:32:00,
2013-02-26 13:42:00,42.0,26.0,29.92,SE,146,3.0,6.0,53,0.00,,,0.00,,2013-02-26 19:42:00,
2013-02-26 13:52:00,42.0,27.0,29.91,SE,138,3.0,5.0,54,0.00,,,0.00,,2013-02-26 19:52:00,
2013-02-26 14:01:00,43.0,27.0,29.91,ESE,122,3.0,7.0,53,0.00,,,0.00,,2013-02-26 20:01:00,
2013-02-26 14:11:00,43.0,27.0,29.91,ESE,122,3.0,7.0,53,0.00,,,0.00,,2013-02-26 20:11:00,
2013-02-26 14:21:00,43.0,27.0,29.91,SE,140,2.0,7.0,52,0.00,,,0.00,,2013-02-26 20:21:00,
2013-02-26 14:32:00,43.0,26.0,29.92,SE,128,2.0,6.0,51,0.00,,,0.00,,2013-02-26 20:32:00,
2013-02-26 14:41:00,43.0,26.0,29.92,SE,128,2.0,6.0,51,0.00,,,0.00,,2013-02-26 20:41:00,
2013-02-26 14:52:00,44.0,27.0,29.91,SE,128,1.0,5.0,51,0.00,,,0.00,,2013-02-26 20:52:00,
2013-02-26 15:01:00,44.0,28.0,29.91,SE,127,1.0,5.0,52,0.00,,,0.00,,2013-02-26 21:01:00,
2013-02-26 15:11:00,44.0,28.0,29.91,SE,127,1.0,5.0,52,0.00,,,0.00,,2013-02-26 21:11:00,
2013-02-26 15:21:00,44.0,27.0,29.91,SSE,147,2.0,6.0,50,0.00,,,0.00,,2013-02-26 21:21:00,
2013-02-26 15:31:00,44.0,27.0,29.91,SE,132,2.0,7.0,50,0.00,,,0.00,,2013-02-26 21:31:00,
2013-02-26 15:41:00,44.0,27.0,29.91,SE,132,2.0,7.0,50,0.00,,,0.00,,2013-02-26 21:41:00,
2013-02-26 15:51:00,44.0,27.0,29.92,SE,139,1.0,5.0,51,0.00,,,0.00,,2013-02-26 21:51:00,
2013-02-26 16:01:00,45.0,27.0,29.92,ESE,103,1.0,5.0,49,0.00,,,0.00,,2013-02-26 22:01:00,
2013-02-26 16:11:00,45.0,27.0,29.92,ESE,103,1.0,5.0,49,0.00,,,0.00,,2013-02-26 22:11:00,
2013-02-26 16:21:00,45.0,27.0,29.93,ESE,103,2.0,5.0,49,0.00,,,0.00,,2013-02-26 22:21:00,
2013-02-26 16:31:00,45.0,27.0,29.93,ESE,103,2.0,5.0,49,0.00,,,0.00,,2013-02-26 22:31:00,
2013-02-26 16:41:00,45.0,27.0,29.93,ESE,103,2.0,5.0,49,0.00,,,0.00,,2013-02-26 22:41:00,
2013-02-26 16:52:00,44.0,28.0,29.94,East,89,1.0,6.0,53,0.00,,,0.00,,2013-02-26 22:52:00,
2013-02-26 17:01:00,41.0,29.0,29.94,East,86,3.0,6.0,63,0.00,,,0.00,,2013-02-26 23:01:00,
2013-02-26 17:11:00,41.0,29.0,29.94,East,86,3.0,6.0,63,0.00,,,0.00,,2013-02-26 23:11:00,
2013-02-26 17:21:00,39.0,29.0,29.94,East,86,2.0,6.0,67,0.00,,,0.00,,2013-02-26 23:21:00,
2013-02-26 17:31:00,38.0,29.0,29.94,East,86,1.0,5.0,69,0.00,,,0.00,,2013-02-26 23:31:00,
2013-02-26 17:41:00,38.0,29.0,29.94,East,86,1.0,5.0,69,0.00,,,0.00,,2013-02-26 23:41:00,
2013-02-26 17:52:00,37.0,28.0,29.95,East,86,1.0,5.0,71,0.00,,,0.00,,2013-02-26 23:52:00,
2013-02-26 18:01:00,37.0,28.0,29.95,East,86,1.0,3.0,70,0.00,,,0.00,,2013-02-27 00:01:00,
2013-02-26 18:11:00,37.0,28.0,29.95,East,86,1.0,3.0,70,0.00,,,0.00,,2013-02-27 00:11:00,
2013-02-26 18:22:00,37.0,28.0,29.96,East,86,0.0,2.0,69,0.00,,,0.00,,2013-02-27 00:22:00,
2013-02-26 18:31:00,37.0,28.0,29.96,East,86,1.0,3.0,71,0.00,,,0.00,,2013-02-27 00:31:00,
2013-02-26 18:41:00,37.0,28.0,29.96,East,86,1.0,3.0,71,0.00,,,0.00,,2013-02-27 00:41:00,
2013-02-26 18:52:00,35.0,27.0,29.97,East,86,1.0,2.0,73,0.00,,,0.00,,2013-02-27 00:52:00,
2013-02-26 19:01:00,34.0,27.0,29.98,East,86,3.0,5.0,76,0.00,,,0.00,,2013-02-27 01:01:00,
2013-02-26 19:11:00,34.0,27.0,29.98,East,86,3.0,5.0,76,0.00,,,0.00,,2013-02-27 01:11:00,
2013-02-26 19:22:00,33.0,27.0,29.98,East,86,2.0,3.0,77,0.00,,,0.00,,2013-02-27 01:22:00,
2013-02-26 19:32:00,33.0,28.0,29.99,NE,40,4.0,6.0,80,0.00,,,0.00,,2013-02-27 01:32:00,
2013-02-26 19:42:00,33.0,28.0,29.99,NE,40,4.0,6.0,80,0.00,,,0.00,,2013-02-27 01:42:00,
2013-02-26 19:52:00,32.0,27.0,30.00,NNE,24,5.0,7.0,82,0.00,,,0.00,,2013-02-27 01:52:00,
2013-02-26 20:01:00,33.0,28.0,30.01,NNW,348,6.0,10.0,82,0.00,,,0.00,,2013-02-27 02:01:00,
2013-02-26 20:14:00,33.0,28.0,30.01,NNW,348,6.0,10.0,82,0.00,,,0.00,,2013-02-27 02:14:00,
2013-02-26 20:23:00,33.0,28.0,30.01,NNW,337,8.0,13.0,83,0.00,,,0.00,,2013-02-27 02:23:00,
2013-02-26 20:32:00,34.0,30.0,30.02,NNW,346,8.0,13.0,85,0.00,,,0.00,,2013-02-27 02:32:00,
2013-02-26 20:42:00,34.0,30.0,30.02,NNW,346,8.0,13.0,85,0.00,,,0.00,,2013-02-27 02:42:00,
2013-02-26 20:52:00,33.0,29.0,30.02,NNW,343,9.0,16.0,86,0.00,,,0.00,,2013-02-27 02:52:00,
2013-02-26 21:02:00,33.0,30.0,30.03,NNW,348,8.0,14.0,87,0.00,,,0.00,,2013-02-27 03:02:00,
2013-02-26 21:11:00,33.0,30.0,30.03,NNW,348,8.0,14.0,87,0.00,,,0.00,,2013-02-27 03:11:00,
2013-02-26 21:22:00,32.0,29.0,30.04,NNW,341,6.0,13.0,88,0.00,,,0.00,,2013-02-27 03:22:00,
2013-02-26 21:32:00,32.0,29.0,30.05,NNW,347,9.0,17.0,88,0.00,,,0.00,,2013-02-27 03:32:00,
2013-02-26 21:42:00,32.0,29.0,30.05,NNW,347,9.0,17.0,88,0.00,,,0.00,,2013-02-27 03:42:00,
2013-02-26 21:52:00,32.0,29.0,30.05,NNW,338,7.0,13.0,88,0.00,,,0.00,,2013-02-27 03:52:00,
2013-02-26 22:01:00,32.0,29.0,30.06,NW,322,7.0,11.0,88,0.00,,,0.00,,2013-02-27 04:01:00,
2013-02-26 22:11:00,32.0,29.0,30.06,NW,322,7.0,11.0,88,0.00,,,0.00,,2013-02-27 04:11:00,
2013-02-26 22:21:00,32.0,29.0,30.06,North,355,7.0,13.0,88,0.00,,,0.00,,2013-02-27 04:21:00,
2013-02-26 22:32:00,32.0,29.0,30.06,North,5,5.0,11.0,88,0.00,,,0.00,,2013-02-27 04:32:00,
2013-02-26 22:41:00,32.0,29.0,30.06,North,5,5.0,11.0,88,0.00,,,0.00,,2013-02-27 04:41:00,
2013-02-26 22:52:00,31.0,28.0,30.06,NNW,338,6.0,11.0,88,0.00,,,0.00,,2013-02-27 04:52:00,
2013-02-26 23:01:00,31.0,28.0,30.06,North,5,6.0,10.0,88,0.00,,,0.00,,2013-02-27 05:01:00,
2013-02-26 23:11:00,31.0,28.0,30.06,North,5,6.0,10.0,88,0.00,,,0.00,,2013-02-27 05:11:00,
2013-02-26 23:22:00,31.0,28.0,30.06,NNE,14,5.0,8.0,89,0.00,,,0.00,,2013-02-27 05:22:00,
2013-02-26 23:32:00,31.0,28.0,30.06,North,355,5.0,9.0,90,0.00,,,0.00,,2013-02-27 05:32:00,
2013-02-26 23:42:00,31.0,28.0,30.06,North,355,5.0,9.0,90,0.00,,,0.00,,2013-02-27 05:42:00,
2013-02-26 23:52:00,31.0,28.0,30.06,NNW,344,5.0,11.0,90,0.00,,,0.00,,2013-02-27 05:52:00,